sensor_id;sensor_type;location;lat;lon;timestamp;temperature;humidity
2999;DHT22;1509;51.964;7.628;2023-08-20T00:00:29;20.30;99.90
2999;DHT22;1509;51.964;7.628;2023-08-20T00:03:10;20.30;99.90
2999;DHT22;1509;51.964;7.628;2023-08-20T00:05:37;20.30;99.90
2999;DHT22;1509;51.964;7.628;2023-08-20T00:08:03;20.20;99.90
2999;DHT22;1509;51.964;7.628;2023-08-20T00:10:30;20.20;99.90
2999;DHT22;1509;51.964;7.628;2023-08-20T00:12:56;20.20;99.90
2999;DHT22;1509;51.964;7.628;2023-08-20T00:15:21;20.20;99.90
2999;DHT22;1509;51.964;7.628;2023-08-20T00:17:52;20.20;99.90
2999;DHT22;1509;51.964;7.628;2023-08-20T00:20:18;20.20;99.90
2999;DHT22;1509;51.964;7.628;2023-08-20T00:22:44;20.10;99.90
2999;DHT22;1509;51.964;7.628;2023-08-20T00:25:12;20.10;99.90
2999;DHT22;1509;51.964;7.628;2023-08-20T00:27:38;20.10;99.90
2999;DHT22;1509;51.964;7.628;2023-08-20T00:30:05;20.00;99.90
2999;DHT22;1509;51.964;7.628;2023-08-20T00:32:31;20.00;99.90
2999;DHT22;1509;51.964;7.628;2023-08-20T00:34:56;20.00;99.90
2999;DHT22;1509;51.964;7.628;2023-08-20T00:37:22;20.00;99.90
2999;DHT22;1509;51.964;7.628;2023-08-20T00:39:47;20.00;99.90
2999;DHT22;1509;51.964;7.628;2023-08-20T00:42:13;20.00;99.90
2999;DHT22;1509;51.964;7.628;2023-08-20T00:44:40;20.00;99.90
2999;DHT22;1509;51.964;7.628;2023-08-20T00:47:07;19.90;99.90
2999;DHT22;1509;51.964;7.628;2023-08-20T00:49:34;20.00;99.90
2999;DHT22;1509;51.964;7.628;2023-08-20T00:52:00;19.80;99.90
2999;DHT22;1509;51.964;7.628;2023-08-20T00:54:26;19.80;99.90
2999;DHT22;1509;51.964;7.628;2023-08-20T00:56:53;19.80;99.90
2999;DHT22;1509;51.964;7.628;2023-08-20T00:59:18;19.80;99.90
2999;DHT22;1509;51.964;7.628;2023-08-20T01:01:45;19.90;99.90
2999;DHT22;1509;51.964;7.628;2023-08-20T01:04:11;19.90;99.90
2999;DHT22;1509;51.964;7.628;2023-08-20T01:06:44;19.90;99.90
2999;DHT22;1509;51.964;7.628;2023-08-20T01:12:07;19.90;99.90
2999;DHT22;1509;51.964;7.628;2023-08-20T01:14:33;19.90;99.90
2999;DHT22;1509;51.964;7.628;2023-08-20T01:16:59;19.70;99.90
2999;DHT22;1509;51.964;7.628;2023-08-20T01:19:24;19.80;99.90
2999;DHT22;1509;51.964;7.628;2023-08-20T01:27:39;19.70;99.90
2999;DHT22;1509;51.964;7.628;2023-08-20T01:30:08;19.80;99.90
2999;DHT22;1509;51.964;7.628;2023-08-20T01:32:35;19.70;99.90
2999;DHT22;1509;51.964;7.628;2023-08-20T01:35:02;19.70;99.90
2999;DHT22;1509;51.964;7.628;2023-08-20T01:37:28;19.60;99.90
2999;DHT22;1509;51.964;7.628;2023-08-20T01:39:54;19.70;99.90
2999;DHT22;1509;51.964;7.628;2023-08-20T01:42:19;19.60;99.90
2999;DHT22;1509;51.964;7.628;2023-08-20T01:44:45;19.70;99.90
2999;DHT22;1509;51.964;7.628;2023-08-20T01:47:11;19.60;99.90
2999;DHT22;1509;51.964;7.628;2023-08-20T01:49:36;19.70;99.90
2999;DHT22;1509;51.964;7.628;2023-08-20T01:52:02;19.60;99.90
2999;DHT22;1509;51.964;7.628;2023-08-20T01:54:29;19.60;99.90
2999;DHT22;1509;51.964;7.628;2023-08-20T01:56:54;19.60;99.90
2999;DHT22;1509;51.964;7.628;2023-08-20T01:59:21;19.60;99.90
2999;DHT22;1509;51.964;7.628;2023-08-20T02:01:47;19.60;99.90
2999;DHT22;1509;51.964;7.628;2023-08-20T02:04:13;19.50;99.90
2999;DHT22;1509;51.964;7.628;2023-08-20T02:06:39;19.60;99.90
2999;DHT22;1509;51.964;7.628;2023-08-20T02:09:04;19.50;99.90
2999;DHT22;1509;51.964;7.628;2023-08-20T02:11:30;19.60;99.90
2999;DHT22;1509;51.964;7.628;2023-08-20T02:13:58;19.60;99.90
2999;DHT22;1509;51.964;7.628;2023-08-20T02:16:24;19.60;99.90
2999;DHT22;1509;51.964;7.628;2023-08-20T02:18:52;19.60;99.90
2999;DHT22;1509;51.964;7.628;2023-08-20T02:21:17;19.60;99.90
2999;DHT22;1509;51.964;7.628;2023-08-20T02:23:43;19.70;99.90
2999;DHT22;1509;51.964;7.628;2023-08-20T02:26:09;19.70;99.90
2999;DHT22;1509;51.964;7.628;2023-08-20T02:28:34;19.80;99.90
2999;DHT22;1509;51.964;7.628;2023-08-20T02:31:04;19.70;99.90
2999;DHT22;1509;51.964;7.628;2023-08-20T02:33:30;19.90;99.90
2999;DHT22;1509;51.964;7.628;2023-08-20T02:36:01;19.80;99.90
2999;DHT22;1509;51.964;7.628;2023-08-20T02:38:27;19.70;99.90
2999;DHT22;1509;51.964;7.628;2023-08-20T02:40:52;19.80;99.90
2999;DHT22;1509;51.964;7.628;2023-08-20T02:43:18;19.70;99.90
2999;DHT22;1509;51.964;7.628;2023-08-20T02:45:43;19.80;99.90
2999;DHT22;1509;51.964;7.628;2023-08-20T02:48:09;19.80;99.90
2999;DHT22;1509;51.964;7.628;2023-08-20T02:50:36;19.70;99.90
2999;DHT22;1509;51.964;7.628;2023-08-20T02:53:01;19.70;99.90
2999;DHT22;1509;51.964;7.628;2023-08-20T02:55:27;19.60;99.90
2999;DHT22;1509;51.964;7.628;2023-08-20T02:57:52;19.70;99.90
2999;DHT22;1509;51.964;7.628;2023-08-20T03:00:18;19.70;99.90
2999;DHT22;1509;51.964;7.628;2023-08-20T03:02:44;19.70;99.90
2999;DHT22;1509;51.964;7.628;2023-08-20T03:05:10;19.70;99.90
2999;DHT22;1509;51.964;7.628;2023-08-20T03:07:35;19.60;99.90
2999;DHT22;1509;51.964;7.628;2023-08-20T03:10:01;19.60;99.90
2999;DHT22;1509;51.964;7.628;2023-08-20T03:12:28;19.60;99.90
2999;DHT22;1509;51.964;7.628;2023-08-20T03:14:54;19.60;99.90
2999;DHT22;1509;51.964;7.628;2023-08-20T03:17:20;19.60;99.90
2999;DHT22;1509;51.964;7.628;2023-08-20T03:19:57;19.60;99.90
2999;DHT22;1509;51.964;7.628;2023-08-20T03:22:23;19.50;99.90
2999;DHT22;1509;51.964;7.628;2023-08-20T03:24:49;19.50;99.90
2999;DHT22;1509;51.964;7.628;2023-08-20T03:27:16;19.80;99.90
2999;DHT22;1509;51.964;7.628;2023-08-20T03:29:42;19.60;99.90
2999;DHT22;1509;51.964;7.628;2023-08-20T03:32:07;19.40;99.90
2999;DHT22;1509;51.964;7.628;2023-08-20T03:34:58;19.50;99.90
2999;DHT22;1509;51.964;7.628;2023-08-20T03:37:25;19.60;99.90
2999;DHT22;1509;51.964;7.628;2023-08-20T03:39:51;19.60;99.90
2999;DHT22;1509;51.964;7.628;2023-08-20T03:42:17;19.50;99.90
2999;DHT22;1509;51.964;7.628;2023-08-20T03:44:42;19.60;99.90
2999;DHT22;1509;51.964;7.628;2023-08-20T03:47:08;19.40;99.90
2999;DHT22;1509;51.964;7.628;2023-08-20T03:49:33;19.50;99.90
2999;DHT22;1509;51.964;7.628;2023-08-20T03:51:59;19.40;99.90
2999;DHT22;1509;51.964;7.628;2023-08-20T03:54:30;19.30;99.90
2999;DHT22;1509;51.964;7.628;2023-08-20T03:56:56;19.40;99.90
2999;DHT22;1509;51.964;7.628;2023-08-20T03:59:21;19.30;99.90
2999;DHT22;1509;51.964;7.628;2023-08-20T04:01:47;19.40;99.90
2999;DHT22;1509;51.964;7.628;2023-08-20T04:04:13;19.30;99.90
2999;DHT22;1509;51.964;7.628;2023-08-20T04:06:38;19.20;99.90
2999;DHT22;1509;51.964;7.628;2023-08-20T04:09:04;19.20;99.90
2999;DHT22;1509;51.964;7.628;2023-08-20T04:11:31;19.20;99.90
2999;DHT22;1509;51.964;7.628;2023-08-20T04:13:57;19.20;99.90
2999;DHT22;1509;51.964;7.628;2023-08-20T04:16:22;19.10;99.90
2999;DHT22;1509;51.964;7.628;2023-08-20T04:18:48;19.10;99.90
2999;DHT22;1509;51.964;7.628;2023-08-20T04:21:13;19.20;99.90
2999;DHT22;1509;51.964;7.628;2023-08-20T04:23:40;19.10;99.90
2999;DHT22;1509;51.964;7.628;2023-08-20T04:26:07;19.10;99.90
2999;DHT22;1509;51.964;7.628;2023-08-20T04:28:33;19.20;99.90
2999;DHT22;1509;51.964;7.628;2023-08-20T04:30:58;19.10;99.90
2999;DHT22;1509;51.964;7.628;2023-08-20T04:33:26;19.10;99.90
2999;DHT22;1509;51.964;7.628;2023-08-20T04:35:51;19.10;99.90
2999;DHT22;1509;51.964;7.628;2023-08-20T04:38:17;19.10;99.90
2999;DHT22;1509;51.964;7.628;2023-08-20T04:40:46;19.10;99.90
2999;DHT22;1509;51.964;7.628;2023-08-20T04:43:12;19.10;99.90
2999;DHT22;1509;51.964;7.628;2023-08-20T04:45:38;19.10;99.90
2999;DHT22;1509;51.964;7.628;2023-08-20T04:48:04;19.10;99.90
2999;DHT22;1509;51.964;7.628;2023-08-20T04:50:30;19.10;99.90
2999;DHT22;1509;51.964;7.628;2023-08-20T04:52:55;19.10;99.90
2999;DHT22;1509;51.964;7.628;2023-08-20T04:55:21;19.10;99.90
2999;DHT22;1509;51.964;7.628;2023-08-20T04:57:47;19.00;99.90
2999;DHT22;1509;51.964;7.628;2023-08-20T05:00:12;18.90;99.90
2999;DHT22;1509;51.964;7.628;2023-08-20T05:02:38;19.00;99.90
2999;DHT22;1509;51.964;7.628;2023-08-20T05:05:04;19.00;99.90
2999;DHT22;1509;51.964;7.628;2023-08-20T05:07:30;19.10;99.90
2999;DHT22;1509;51.964;7.628;2023-08-20T05:09:55;19.00;99.90
2999;DHT22;1509;51.964;7.628;2023-08-20T05:12:21;19.10;99.90
2999;DHT22;1509;51.964;7.628;2023-08-20T05:14:46;19.20;99.90
2999;DHT22;1509;51.964;7.628;2023-08-20T05:17:12;19.10;99.90
2999;DHT22;1509;51.964;7.628;2023-08-20T05:19:38;19.10;99.90
2999;DHT22;1509;51.964;7.628;2023-08-20T05:22:03;19.00;99.90
2999;DHT22;1509;51.964;7.628;2023-08-20T05:24:29;19.20;99.90
2999;DHT22;1509;51.964;7.628;2023-08-20T05:27:16;19.20;99.90
2999;DHT22;1509;51.964;7.628;2023-08-20T05:29:45;19.20;99.90
2999;DHT22;1509;51.964;7.628;2023-08-20T05:32:11;19.40;99.90
2999;DHT22;1509;51.964;7.628;2023-08-20T05:34:37;19.40;99.90
2999;DHT22;1509;51.964;7.628;2023-08-20T05:37:02;19.60;99.90
2999;DHT22;1509;51.964;7.628;2023-08-20T05:39:30;19.50;99.90
2999;DHT22;1509;51.964;7.628;2023-08-20T05:41:56;19.50;99.90
2999;DHT22;1509;51.964;7.628;2023-08-20T05:44:22;19.50;99.90
2999;DHT22;1509;51.964;7.628;2023-08-20T05:46:48;19.50;99.90
2999;DHT22;1509;51.964;7.628;2023-08-20T05:49:14;19.50;99.90
2999;DHT22;1509;51.964;7.628;2023-08-20T05:51:44;19.50;99.90
2999;DHT22;1509;51.964;7.628;2023-08-20T05:54:10;19.50;99.90
2999;DHT22;1509;51.964;7.628;2023-08-20T05:56:36;19.60;99.90
2999;DHT22;1509;51.964;7.628;2023-08-20T05:59:02;19.70;99.90
2999;DHT22;1509;51.964;7.628;2023-08-20T06:01:27;19.70;99.90
2999;DHT22;1509;51.964;7.628;2023-08-20T06:03:53;19.90;99.90
2999;DHT22;1509;51.964;7.628;2023-08-20T06:06:18;19.90;99.90
2999;DHT22;1509;51.964;7.628;2023-08-20T06:08:44;19.90;99.90
2999;DHT22;1509;51.964;7.628;2023-08-20T06:11:09;20.10;99.90
2999;DHT22;1509;51.964;7.628;2023-08-20T06:13:35;20.10;99.90
2999;DHT22;1509;51.964;7.628;2023-08-20T06:16:01;20.20;99.90
2999;DHT22;1509;51.964;7.628;2023-08-20T06:18:26;20.00;99.90
2999;DHT22;1509;51.964;7.628;2023-08-20T06:20:52;20.20;99.90
2999;DHT22;1509;51.964;7.628;2023-08-20T06:23:17;20.30;99.90
2999;DHT22;1509;51.964;7.628;2023-08-20T06:25:43;20.40;99.90
2999;DHT22;1509;51.964;7.628;2023-08-20T06:28:08;20.40;99.90
2999;DHT22;1509;51.964;7.628;2023-08-20T06:30:38;20.50;99.90
2999;DHT22;1509;51.964;7.628;2023-08-20T06:35:29;20.60;99.90
2999;DHT22;1509;51.964;7.628;2023-08-20T06:37:55;20.60;99.90
2999;DHT22;1509;51.964;7.628;2023-08-20T06:40:21;20.70;99.90
2999;DHT22;1509;51.964;7.628;2023-08-20T06:42:46;20.90;99.90
2999;DHT22;1509;51.964;7.628;2023-08-20T06:45:12;20.90;99.90
2999;DHT22;1509;51.964;7.628;2023-08-20T06:47:37;21.00;99.90
2999;DHT22;1509;51.964;7.628;2023-08-20T06:50:04;21.30;99.90
2999;DHT22;1509;51.964;7.628;2023-08-20T06:52:29;21.00;99.90
2999;DHT22;1509;51.964;7.628;2023-08-20T06:54:55;21.10;99.90
2999;DHT22;1509;51.964;7.628;2023-08-20T06:57:23;21.20;99.90
2999;DHT22;1509;51.964;7.628;2023-08-20T06:59:49;21.30;99.90
2999;DHT22;1509;51.964;7.628;2023-08-20T07:02:14;21.40;99.90
2999;DHT22;1509;51.964;7.628;2023-08-20T07:04:40;21.50;99.90
2999;DHT22;1509;51.964;7.628;2023-08-20T07:07:06;21.50;99.90
2999;DHT22;1509;51.964;7.628;2023-08-20T07:09:31;21.60;99.90
2999;DHT22;1509;51.964;7.628;2023-08-20T07:11:57;21.60;99.90
2999;DHT22;1509;51.964;7.628;2023-08-20T07:14:22;21.70;99.90
2999;DHT22;1509;51.964;7.628;2023-08-20T07:16:48;21.80;99.90
2999;DHT22;1509;51.964;7.628;2023-08-20T07:19:14;21.80;99.90
2999;DHT22;1509;51.964;7.628;2023-08-20T07:21:39;21.90;99.90
2999;DHT22;1509;51.964;7.628;2023-08-20T07:24:05;21.90;99.90
2999;DHT22;1509;51.964;7.628;2023-08-20T07:26:30;22.00;99.90
2999;DHT22;1509;51.964;7.628;2023-08-20T07:28:56;21.90;99.90
2999;DHT22;1509;51.964;7.628;2023-08-20T07:31:23;22.00;99.90
2999;DHT22;1509;51.964;7.628;2023-08-20T07:33:49;22.00;99.90
2999;DHT22;1509;51.964;7.628;2023-08-20T07:36:16;22.10;99.90
2999;DHT22;1509;51.964;7.628;2023-08-20T07:38:43;22.20;99.90
2999;DHT22;1509;51.964;7.628;2023-08-20T07:41:09;22.20;99.90
2999;DHT22;1509;51.964;7.628;2023-08-20T07:43:38;22.30;99.90
2999;DHT22;1509;51.964;7.628;2023-08-20T07:46:04;22.20;99.90
2999;DHT22;1509;51.964;7.628;2023-08-20T07:48:30;22.30;99.90
2999;DHT22;1509;51.964;7.628;2023-08-20T07:50:55;22.30;99.90
2999;DHT22;1509;51.964;7.628;2023-08-20T07:53:21;22.40;99.90
2999;DHT22;1509;51.964;7.628;2023-08-20T07:55:46;22.50;99.90
2999;DHT22;1509;51.964;7.628;2023-08-20T07:58:12;22.60;99.90
2999;DHT22;1509;51.964;7.628;2023-08-20T08:00:38;22.70;99.90
2999;DHT22;1509;51.964;7.628;2023-08-20T08:03:03;23.00;99.90
2999;DHT22;1509;51.964;7.628;2023-08-20T08:05:29;23.20;99.90
2999;DHT22;1509;51.964;7.628;2023-08-20T08:07:55;23.40;99.90
2999;DHT22;1509;51.964;7.628;2023-08-20T08:10:20;23.40;99.90
2999;DHT22;1509;51.964;7.628;2023-08-20T08:12:46;23.60;99.90
2999;DHT22;1509;51.964;7.628;2023-08-20T08:15:12;23.50;99.90
2999;DHT22;1509;51.964;7.628;2023-08-20T08:17:38;23.60;99.90
2999;DHT22;1509;51.964;7.628;2023-08-20T08:20:05;23.80;99.90
2999;DHT22;1509;51.964;7.628;2023-08-20T08:22:31;23.70;99.90
2999;DHT22;1509;51.964;7.628;2023-08-20T08:24:57;23.80;99.90
2999;DHT22;1509;51.964;7.628;2023-08-20T08:27:22;23.90;99.90
2999;DHT22;1509;51.964;7.628;2023-08-20T08:29:48;24.00;99.90
2999;DHT22;1509;51.964;7.628;2023-08-20T08:32:14;23.90;99.90
2999;DHT22;1509;51.964;7.628;2023-08-20T08:34:39;24.10;99.90
2999;DHT22;1509;51.964;7.628;2023-08-20T08:37:05;24.10;99.90
2999;DHT22;1509;51.964;7.628;2023-08-20T08:39:30;24.20;99.90
2999;DHT22;1509;51.964;7.628;2023-08-20T08:42:02;24.20;99.90
2999;DHT22;1509;51.964;7.628;2023-08-20T08:44:31;24.30;99.90
2999;DHT22;1509;51.964;7.628;2023-08-20T08:46:57;24.30;99.90
2999;DHT22;1509;51.964;7.628;2023-08-20T08:49:22;24.40;99.90
2999;DHT22;1509;51.964;7.628;2023-08-20T08:51:48;24.70;99.90
2999;DHT22;1509;51.964;7.628;2023-08-20T08:54:16;25.20;99.90
2999;DHT22;1509;51.964;7.628;2023-08-20T08:56:42;26.20;99.90
2999;DHT22;1509;51.964;7.628;2023-08-20T08:59:08;27.60;99.90
2999;DHT22;1509;51.964;7.628;2023-08-20T09:01:38;28.50;99.90
2999;DHT22;1509;51.964;7.628;2023-08-20T09:04:04;29.10;99.90
2999;DHT22;1509;51.964;7.628;2023-08-20T09:06:48;29.70;99.90
2999;DHT22;1509;51.964;7.628;2023-08-20T09:09:14;29.90;99.90
2999;DHT22;1509;51.964;7.628;2023-08-20T09:11:40;29.50;99.90
2999;DHT22;1509;51.964;7.628;2023-08-20T09:14:05;29.90;99.90
2999;DHT22;1509;51.964;7.628;2023-08-20T09:16:31;30.30;99.90
2999;DHT22;1509;51.964;7.628;2023-08-20T09:18:59;31.10;99.90
2999;DHT22;1509;51.964;7.628;2023-08-20T09:21:29;32.00;99.90
2999;DHT22;1509;51.964;7.628;2023-08-20T09:23:55;32.90;99.90
2999;DHT22;1509;51.964;7.628;2023-08-20T09:26:22;33.30;99.90
2999;DHT22;1509;51.964;7.628;2023-08-20T09:28:47;33.90;99.90
2999;DHT22;1509;51.964;7.628;2023-08-20T09:31:14;34.10;99.90
2999;DHT22;1509;51.964;7.628;2023-08-20T09:33:52;33.70;99.90
2999;DHT22;1509;51.964;7.628;2023-08-20T09:38:44;33.10;99.90
2999;DHT22;1509;51.964;7.628;2023-08-20T09:41:12;33.50;99.90
2999;DHT22;1509;51.964;7.628;2023-08-20T09:43:38;33.70;99.90
2999;DHT22;1509;51.964;7.628;2023-08-20T09:46:05;33.50;99.90
2999;DHT22;1509;51.964;7.628;2023-08-20T09:48:35;34.10;99.90
2999;DHT22;1509;51.964;7.628;2023-08-20T09:51:05;35.10;99.90
2999;DHT22;1509;51.964;7.628;2023-08-20T09:53:39;35.30;99.90
2999;DHT22;1509;51.964;7.628;2023-08-20T09:56:23;34.30;99.90
2999;DHT22;1509;51.964;7.628;2023-08-20T09:58:51;34.90;99.90
2999;DHT22;1509;51.964;7.628;2023-08-20T10:01:17;35.00;99.90
2999;DHT22;1509;51.964;7.628;2023-08-20T10:03:43;34.50;99.90
2999;DHT22;1509;51.964;7.628;2023-08-20T10:06:09;34.00;99.90
2999;DHT22;1509;51.964;7.628;2023-08-20T10:08:36;34.30;99.90
2999;DHT22;1509;51.964;7.628;2023-08-20T10:11:03;34.70;99.90
2999;DHT22;1509;51.964;7.628;2023-08-20T10:13:29;35.60;99.90
2999;DHT22;1509;51.964;7.628;2023-08-20T10:15:54;36.20;99.90
2999;DHT22;1509;51.964;7.628;2023-08-20T10:18:21;35.80;99.90
2999;DHT22;1509;51.964;7.628;2023-08-20T10:20:50;35.50;99.90
2999;DHT22;1509;51.964;7.628;2023-08-20T10:23:22;36.00;99.90
2999;DHT22;1509;51.964;7.628;2023-08-20T10:25:53;35.30;99.90
2999;DHT22;1509;51.964;7.628;2023-08-20T10:28:25;32.80;99.90
2999;DHT22;1509;51.964;7.628;2023-08-20T10:31:16;31.70;99.90
2999;DHT22;1509;51.964;7.628;2023-08-20T10:33:50;32.00;99.90
2999;DHT22;1509;51.964;7.628;2023-08-20T10:36:20;33.30;99.90
2999;DHT22;1509;51.964;7.628;2023-08-20T10:38:52;33.60;99.90
2999;DHT22;1509;51.964;7.628;2023-08-20T10:41:30;34.40;99.90
2999;DHT22;1509;51.964;7.628;2023-08-20T10:43:59;35.00;99.90
2999;DHT22;1509;51.964;7.628;2023-08-20T10:46:29;35.50;99.90
2999;DHT22;1509;51.964;7.628;2023-08-20T10:49:02;35.80;99.90
2999;DHT22;1509;51.964;7.628;2023-08-20T10:51:36;36.40;99.90
2999;DHT22;1509;51.964;7.628;2023-08-20T10:56:46;36.00;99.90
2999;DHT22;1509;51.964;7.628;2023-08-20T10:59:15;36.10;99.90
2999;DHT22;1509;51.964;7.628;2023-08-20T11:01:45;35.80;99.90
2999;DHT22;1509;51.964;7.628;2023-08-20T11:04:13;36.10;99.90
2999;DHT22;1509;51.964;7.628;2023-08-20T11:06:41;36.80;99.90
2999;DHT22;1509;51.964;7.628;2023-08-20T11:09:06;37.00;99.90
2999;DHT22;1509;51.964;7.628;2023-08-20T11:11:32;36.40;99.90
2999;DHT22;1509;51.964;7.628;2023-08-20T11:14:05;36.20;99.90
2999;DHT22;1509;51.964;7.628;2023-08-20T11:16:33;36.30;99.90
2999;DHT22;1509;51.964;7.628;2023-08-20T11:18:58;36.60;99.90
2999;DHT22;1509;51.964;7.628;2023-08-20T11:21:24;36.10;99.90
2999;DHT22;1509;51.964;7.628;2023-08-20T11:23:50;36.10;99.90
2999;DHT22;1509;51.964;7.628;2023-08-20T11:26:17;35.70;99.90
2999;DHT22;1509;51.964;7.628;2023-08-20T11:28:46;35.20;99.90
2999;DHT22;1509;51.964;7.628;2023-08-20T11:31:12;34.80;99.90
2999;DHT22;1509;51.964;7.628;2023-08-20T11:33:38;34.60;99.90
2999;DHT22;1509;51.964;7.628;2023-08-20T11:36:05;35.20;99.90
2999;DHT22;1509;51.964;7.628;2023-08-20T11:38:31;36.10;99.90
2999;DHT22;1509;51.964;7.628;2023-08-20T11:41:00;35.30;99.90
2999;DHT22;1509;51.964;7.628;2023-08-20T11:43:29;35.00;99.90
2999;DHT22;1509;51.964;7.628;2023-08-20T11:45:55;34.70;99.90
2999;DHT22;1509;51.964;7.628;2023-08-20T11:48:22;34.70;99.90
2999;DHT22;1509;51.964;7.628;2023-08-20T11:50:49;33.60;99.90
2999;DHT22;1509;51.964;7.628;2023-08-20T11:53:23;32.70;99.90
2999;DHT22;1509;51.964;7.628;2023-08-20T11:55:49;32.00;99.90
2999;DHT22;1509;51.964;7.628;2023-08-20T11:58:15;31.50;99.90
2999;DHT22;1509;51.964;7.628;2023-08-20T12:00:41;31.40;99.90
2999;DHT22;1509;51.964;7.628;2023-08-20T12:03:08;31.10;99.90
2999;DHT22;1509;51.964;7.628;2023-08-20T12:05:36;30.80;99.90
2999;DHT22;1509;51.964;7.628;2023-08-20T12:08:03;31.00;99.90
2999;DHT22;1509;51.964;7.628;2023-08-20T12:10:30;31.10;99.90
2999;DHT22;1509;51.964;7.628;2023-08-20T12:12:57;30.60;99.90
2999;DHT22;1509;51.964;7.628;2023-08-20T12:15:24;30.00;99.90
2999;DHT22;1509;51.964;7.628;2023-08-20T12:18:03;29.50;99.90
2999;DHT22;1509;51.964;7.628;2023-08-20T12:20:35;29.10;99.90
2999;DHT22;1509;51.964;7.628;2023-08-20T12:23:06;29.00;99.90
2999;DHT22;1509;51.964;7.628;2023-08-20T12:25:33;29.30;99.90
2999;DHT22;1509;51.964;7.628;2023-08-20T12:28:03;29.50;99.90
2999;DHT22;1509;51.964;7.628;2023-08-20T12:30:30;30.00;99.90
2999;DHT22;1509;51.964;7.628;2023-08-20T12:32:56;31.00;99.90
2999;DHT22;1509;51.964;7.628;2023-08-20T12:35:21;31.50;99.90
2999;DHT22;1509;51.964;7.628;2023-08-20T12:37:47;32.10;99.90
2999;DHT22;1509;51.964;7.628;2023-08-20T12:40:13;32.50;99.90
2999;DHT22;1509;51.964;7.628;2023-08-20T12:42:39;32.20;99.90
2999;DHT22;1509;51.964;7.628;2023-08-20T12:45:06;31.60;99.90
2999;DHT22;1509;51.964;7.628;2023-08-20T12:47:32;32.00;99.90
2999;DHT22;1509;51.964;7.628;2023-08-20T12:49:58;32.90;99.90
2999;DHT22;1509;51.964;7.628;2023-08-20T12:52:23;33.50;99.90
2999;DHT22;1509;51.964;7.628;2023-08-20T12:54:49;33.70;99.90
2999;DHT22;1509;51.964;7.628;2023-08-20T12:57:15;34.40;99.90
2999;DHT22;1509;51.964;7.628;2023-08-20T12:59:40;34.70;99.90
2999;DHT22;1509;51.964;7.628;2023-08-20T13:02:06;34.80;99.90
2999;DHT22;1509;51.964;7.628;2023-08-20T13:04:32;34.50;99.90
2999;DHT22;1509;51.964;7.628;2023-08-20T13:06:58;33.80;99.90
2999;DHT22;1509;51.964;7.628;2023-08-20T13:09:24;32.80;99.90
2999;DHT22;1509;51.964;7.628;2023-08-20T13:11:52;31.70;99.90
2999;DHT22;1509;51.964;7.628;2023-08-20T13:16:44;32.50;99.90
2999;DHT22;1509;51.964;7.628;2023-08-20T13:19:10;33.30;99.90
2999;DHT22;1509;51.964;7.628;2023-08-20T13:21:36;33.70;99.90
2999;DHT22;1509;51.964;7.628;2023-08-20T13:24:02;34.20;99.90
2999;DHT22;1509;51.964;7.628;2023-08-20T13:26:27;34.10;99.90
2999;DHT22;1509;51.964;7.628;2023-08-20T13:28:53;33.20;99.90
2999;DHT22;1509;51.964;7.628;2023-08-20T13:31:19;32.50;99.90
2999;DHT22;1509;51.964;7.628;2023-08-20T13:33:44;31.60;99.90
2999;DHT22;1509;51.964;7.628;2023-08-20T13:36:10;31.10;99.90
2999;DHT22;1509;51.964;7.628;2023-08-20T13:38:35;30.60;99.90
2999;DHT22;1509;51.964;7.628;2023-08-20T13:41:01;30.20;99.90
2999;DHT22;1509;51.964;7.628;2023-08-20T13:43:26;30.10;99.90
2999;DHT22;1509;51.964;7.628;2023-08-20T13:45:52;30.20;99.90
2999;DHT22;1509;51.964;7.628;2023-08-20T13:48:18;30.90;99.90
2999;DHT22;1509;51.964;7.628;2023-08-20T13:50:43;31.30;99.90
2999;DHT22;1509;51.964;7.628;2023-08-20T13:53:09;31.40;99.90
2999;DHT22;1509;51.964;7.628;2023-08-20T13:55:35;31.60;99.90
2999;DHT22;1509;51.964;7.628;2023-08-20T13:58:01;31.50;99.90
2999;DHT22;1509;51.964;7.628;2023-08-20T14:00:30;31.40;99.90
2999;DHT22;1509;51.964;7.628;2023-08-20T14:02:55;31.00;99.90
2999;DHT22;1509;51.964;7.628;2023-08-20T14:05:21;30.90;99.90
2999;DHT22;1509;51.964;7.628;2023-08-20T14:07:46;30.50;99.90
2999;DHT22;1509;51.964;7.628;2023-08-20T14:10:12;30.40;99.90
2999;DHT22;1509;51.964;7.628;2023-08-20T14:12:38;30.50;99.90
2999;DHT22;1509;51.964;7.628;2023-08-20T14:15:04;30.30;99.90
2999;DHT22;1509;51.964;7.628;2023-08-20T14:17:29;30.10;99.90
2999;DHT22;1509;51.964;7.628;2023-08-20T14:19:56;30.00;99.90
2999;DHT22;1509;51.964;7.628;2023-08-20T14:22:21;29.90;99.90
2999;DHT22;1509;51.964;7.628;2023-08-20T14:24:47;29.70;99.90
2999;DHT22;1509;51.964;7.628;2023-08-20T14:27:12;29.80;99.90
2999;DHT22;1509;51.964;7.628;2023-08-20T14:29:38;29.90;99.90
2999;DHT22;1509;51.964;7.628;2023-08-20T14:32:04;29.90;99.90
2999;DHT22;1509;51.964;7.628;2023-08-20T14:34:29;29.80;99.90
2999;DHT22;1509;51.964;7.628;2023-08-20T14:36:55;29.50;99.90
2999;DHT22;1509;51.964;7.628;2023-08-20T14:39:20;29.50;99.90
2999;DHT22;1509;51.964;7.628;2023-08-20T14:41:46;29.50;99.90
2999;DHT22;1509;51.964;7.628;2023-08-20T14:44:12;29.50;99.90
2999;DHT22;1509;51.964;7.628;2023-08-20T14:46:37;29.50;99.90
2999;DHT22;1509;51.964;7.628;2023-08-20T14:49:03;29.50;99.90
2999;DHT22;1509;51.964;7.628;2023-08-20T14:51:29;29.50;99.90
2999;DHT22;1509;51.964;7.628;2023-08-20T14:53:55;29.40;99.90
2999;DHT22;1509;51.964;7.628;2023-08-20T14:56:20;29.30;99.90
2999;DHT22;1509;51.964;7.628;2023-08-20T14:58:46;29.20;99.90
2999;DHT22;1509;51.964;7.628;2023-08-20T15:01:11;29.20;99.90
2999;DHT22;1509;51.964;7.628;2023-08-20T15:03:38;29.10;99.90
2999;DHT22;1509;51.964;7.628;2023-08-20T15:06:04;29.10;99.90
2999;DHT22;1509;51.964;7.628;2023-08-20T15:08:30;29.20;99.90
2999;DHT22;1509;51.964;7.628;2023-08-20T15:10:57;29.30;99.90
2999;DHT22;1509;51.964;7.628;2023-08-20T15:13:23;29.10;99.90
2999;DHT22;1509;51.964;7.628;2023-08-20T15:15:52;29.00;99.90
2999;DHT22;1509;51.964;7.628;2023-08-20T15:18:18;28.90;99.90
2999;DHT22;1509;51.964;7.628;2023-08-20T15:20:44;28.80;99.90
2999;DHT22;1509;51.964;7.628;2023-08-20T15:23:09;28.90;99.90
2999;DHT22;1509;51.964;7.628;2023-08-20T15:25:35;28.80;99.90
2999;DHT22;1509;51.964;7.628;2023-08-20T15:28:00;28.90;99.90
2999;DHT22;1509;51.964;7.628;2023-08-20T15:30:29;28.90;99.90
2999;DHT22;1509;51.964;7.628;2023-08-20T15:32:55;28.80;99.90
2999;DHT22;1509;51.964;7.628;2023-08-20T15:35:20;28.70;99.90
2999;DHT22;1509;51.964;7.628;2023-08-20T15:37:46;28.60;99.90
2999;DHT22;1509;51.964;7.628;2023-08-20T15:40:11;28.60;99.90
2999;DHT22;1509;51.964;7.628;2023-08-20T15:42:39;28.60;99.90
2999;DHT22;1509;51.964;7.628;2023-08-20T15:45:05;28.70;99.90
2999;DHT22;1509;51.964;7.628;2023-08-20T15:47:31;28.70;99.90
2999;DHT22;1509;51.964;7.628;2023-08-20T15:49:56;28.70;99.90
2999;DHT22;1509;51.964;7.628;2023-08-20T15:52:22;28.50;99.90
2999;DHT22;1509;51.964;7.628;2023-08-20T15:54:47;28.50;99.90
2999;DHT22;1509;51.964;7.628;2023-08-20T15:57:13;28.40;99.90
2999;DHT22;1509;51.964;7.628;2023-08-20T15:59:38;28.30;99.90
2999;DHT22;1509;51.964;7.628;2023-08-20T16:02:05;28.20;99.90
2999;DHT22;1509;51.964;7.628;2023-08-20T16:04:33;28.10;99.90
2999;DHT22;1509;51.964;7.628;2023-08-20T16:06:58;28.10;99.90
2999;DHT22;1509;51.964;7.628;2023-08-20T16:09:25;28.10;99.90
2999;DHT22;1509;51.964;7.628;2023-08-20T16:11:50;28.00;99.90
2999;DHT22;1509;51.964;7.628;2023-08-20T16:14:16;28.00;99.90
2999;DHT22;1509;51.964;7.628;2023-08-20T16:16:41;28.00;99.90